sensor_id;sensor_type;location;lat;lon;timestamp;P1;durP1;ratioP1;P2;durP2;ratioP2
17214;SDS011;8723;51.502;6.918;2023-08-31T00:01:00;8.73;;;5.00;;
17214;SDS011;8723;51.502;6.918;2023-08-31T00:03:28;6.85;;;4.65;;
17214;SDS011;8723;51.502;6.918;2023-08-31T00:05:55;10.82;;;4.50;;
17214;SDS011;8723;51.502;6.918;2023-08-31T00:08:22;6.70;;;4.38;;
17214;SDS011;8723;51.502;6.918;2023-08-31T00:10:55;6.75;;;4.50;;
17214;SDS011;8723;51.502;6.918;2023-08-31T00:13:23;6.15;;;4.20;;
17214;SDS011;8723;51.502;6.918;2023-08-31T00:15:53;4.97;;;4.20;;
17214;SDS011;8723;51.502;6.918;2023-08-31T00:18:20;6.47;;;4.22;;
17214;SDS011;8723;51.502;6.918;2023-08-31T00:20:47;8.80;;;4.75;;
17214;SDS011;8723;51.502;6.918;2023-08-31T00:23:14;6.53;;;4.70;;
17214;SDS011;8723;51.502;6.918;2023-08-31T00:25:40;6.13;;;4.68;;
17214;SDS011;8723;51.502;6.918;2023-08-31T00:28:09;7.10;;;4.82;;
17214;SDS011;8723;51.502;6.918;2023-08-31T00:30:36;7.60;;;4.90;;
17214;SDS011;8723;51.502;6.918;2023-08-31T00:33:03;6.53;;;4.60;;
17214;SDS011;8723;51.502;6.918;2023-08-31T00:35:30;8.90;;;4.78;;
17214;SDS011;8723;51.502;6.918;2023-08-31T00:37:59;9.70;;;4.50;;
17214;SDS011;8723;51.502;6.918;2023-08-31T00:40:29;7.20;;;4.25;;
17214;SDS011;8723;51.502;6.918;2023-08-31T00:42:56;9.90;;;4.28;;
17214;SDS011;8723;51.502;6.918;2023-08-31T00:45:25;7.63;;;4.75;;
17214;SDS011;8723;51.502;6.918;2023-08-31T00:47:52;7.93;;;5.00;;
17214;SDS011;8723;51.502;6.918;2023-08-31T00:50:19;8.13;;;5.75;;
17214;SDS011;8723;51.502;6.918;2023-08-31T00:52:46;8.43;;;5.43;;
17214;SDS011;8723;51.502;6.918;2023-08-31T00:55:13;6.70;;;5.28;;
17214;SDS011;8723;51.502;6.918;2023-08-31T00:57:42;6.97;;;5.30;;
17214;SDS011;8723;51.502;6.918;2023-08-31T01:00:10;7.23;;;5.40;;
17214;SDS011;8723;51.502;6.918;2023-08-31T01:02:44;8.18;;;5.50;;
17214;SDS011;8723;51.502;6.918;2023-08-31T01:05:26;8.67;;;5.40;;
17214;SDS011;8723;51.502;6.918;2023-08-31T01:08:02;9.27;;;5.33;;
17214;SDS011;8723;51.502;6.918;2023-08-31T01:10:39;8.77;;;5.28;;
17214;SDS011;8723;51.502;6.918;2023-08-31T01:13:11;7.53;;;5.10;;
17214;SDS011;8723;51.502;6.918;2023-08-31T01:15:41;9.27;;;5.10;;
17214;SDS011;8723;51.502;6.918;2023-08-31T01:18:13;8.10;;;5.55;;
17214;SDS011;8723;51.502;6.918;2023-08-31T01:20:44;8.35;;;5.30;;
17214;SDS011;8723;51.502;6.918;2023-08-31T01:23:25;10.25;;;5.10;;
17214;SDS011;8723;51.502;6.918;2023-08-31T01:26:01;6.28;;;5.20;;
17214;SDS011;8723;51.502;6.918;2023-08-31T01:28:29;8.25;;;5.60;;
17214;SDS011;8723;51.502;6.918;2023-08-31T01:30:56;6.43;;;5.43;;
17214;SDS011;8723;51.502;6.918;2023-08-31T01:33:23;7.63;;;5.80;;
17214;SDS011;8723;51.502;6.918;2023-08-31T01:35:50;9.02;;;5.65;;
17214;SDS011;8723;51.502;6.918;2023-08-31T01:38:21;7.57;;;5.18;;
17214;SDS011;8723;51.502;6.918;2023-08-31T01:40:54;0.00;;;0.00;;
17214;SDS011;8723;51.502;6.918;2023-08-31T01:43:30;7.47;;;4.93;;
17214;SDS011;8723;51.502;6.918;2023-08-31T01:46:01;7.60;;;5.47;;
17214;SDS011;8723;51.502;6.918;2023-08-31T01:48:31;7.45;;;5.35;;
17214;SDS011;8723;51.502;6.918;2023-08-31T01:51:04;6.78;;;5.13;;
17214;SDS011;8723;51.502;6.918;2023-08-31T01:53:35;5.60;;;5.00;;
17214;SDS011;8723;51.502;6.918;2023-08-31T01:56:04;7.00;;;5.32;;
17214;SDS011;8723;51.502;6.918;2023-08-31T01:58:36;8.07;;;5.28;;
17214;SDS011;8723;51.502;6.918;2023-08-31T02:01:06;5.57;;;4.70;;
17214;SDS011;8723;51.502;6.918;2023-08-31T02:03:35;5.40;;;4.90;;
17214;SDS011;8723;51.502;6.918;2023-08-31T02:06:05;7.43;;;4.65;;
17214;SDS011;8723;51.502;6.918;2023-08-31T02:08:35;5.72;;;4.40;;
17214;SDS011;8723;51.502;6.918;2023-08-31T02:11:03;5.43;;;4.60;;
17214;SDS011;8723;51.502;6.918;2023-08-31T02:13:30;5.75;;;4.55;;
17214;SDS011;8723;51.502;6.918;2023-08-31T02:16:00;5.85;;;5.07;;
17214;SDS011;8723;51.502;6.918;2023-08-31T02:18:30;5.82;;;4.88;;
17214;SDS011;8723;51.502;6.918;2023-08-31T02:20:59;7.10;;;4.93;;
17214;SDS011;8723;51.502;6.918;2023-08-31T02:23:30;5.43;;;4.93;;
17214;SDS011;8723;51.502;6.918;2023-08-31T02:25:59;7.18;;;5.70;;
17214;SDS011;8723;51.502;6.918;2023-08-31T02:28:27;6.77;;;5.27;;
17214;SDS011;8723;51.502;6.918;2023-08-31T02:30:58;5.95;;;5.35;;
17214;SDS011;8723;51.502;6.918;2023-08-31T02:33:31;6.93;;;4.80;;
17214;SDS011;8723;51.502;6.918;2023-08-31T02:36:00;6.70;;;4.78;;
17214;SDS011;8723;51.502;6.918;2023-08-31T02:38:27;7.50;;;5.00;;
17214;SDS011;8723;51.502;6.918;2023-08-31T02:40:54;7.25;;;5.40;;
17214;SDS011;8723;51.502;6.918;2023-08-31T02:43:21;6.43;;;4.82;;
17214;SDS011;8723;51.502;6.918;2023-08-31T02:45:47;6.70;;;5.40;;
17214;SDS011;8723;51.502;6.918;2023-08-31T02:48:16;5.55;;;4.97;;
17214;SDS011;8723;51.502;6.918;2023-08-31T02:50:43;5.75;;;5.15;;
17214;SDS011;8723;51.502;6.918;2023-08-31T02:53:11;7.32;;;5.30;;
17214;SDS011;8723;51.502;6.918;2023-08-31T02:55:38;6.25;;;5.30;;
17214;SDS011;8723;51.502;6.918;2023-08-31T02:58:05;5.90;;;5.30;;
17214;SDS011;8723;51.502;6.918;2023-08-31T03:00:32;7.10;;;5.32;;
17214;SDS011;8723;51.502;6.918;2023-08-31T03:02:58;7.10;;;5.28;;
17214;SDS011;8723;51.502;6.918;2023-08-31T03:05:26;6.23;;;5.60;;
17214;SDS011;8723;51.502;6.918;2023-08-31T03:07:53;6.18;;;5.35;;
17214;SDS011;8723;51.502;6.918;2023-08-31T03:10:22;7.05;;;5.50;;
17214;SDS011;8723;51.502;6.918;2023-08-31T03:12:49;6.97;;;4.93;;
17214;SDS011;8723;51.502;6.918;2023-08-31T03:15:15;6.20;;;5.60;;
17214;SDS011;8723;51.502;6.918;2023-08-31T03:17:42;6.30;;;5.70;;
17214;SDS011;8723;51.502;6.918;2023-08-31T03:20:09;5.60;;;4.95;;
17214;SDS011;8723;51.502;6.918;2023-08-31T03:22:38;7.32;;;5.88;;
17214;SDS011;8723;51.502;6.918;2023-08-31T03:25:05;8.15;;;5.78;;
17214;SDS011;8723;51.502;6.918;2023-08-31T03:27:32;7.05;;;5.35;;
17214;SDS011;8723;51.502;6.918;2023-08-31T03:29:59;7.78;;;5.40;;
17214;SDS011;8723;51.502;6.918;2023-08-31T03:32:26;6.80;;;5.65;;
17214;SDS011;8723;51.502;6.918;2023-08-31T03:34:53;6.37;;;5.63;;
17214;SDS011;8723;51.502;6.918;2023-08-31T03:37:20;7.88;;;5.68;;
17214;SDS011;8723;51.502;6.918;2023-08-31T03:39:48;8.07;;;6.22;;
17214;SDS011;8723;51.502;6.918;2023-08-31T03:42:15;8.23;;;5.97;;
17214;SDS011;8723;51.502;6.918;2023-08-31T03:44:41;6.20;;;5.60;;
17214;SDS011;8723;51.502;6.918;2023-08-31T03:47:08;6.43;;;5.80;;
17214;SDS011;8723;51.502;6.918;2023-08-31T03:49:35;7.43;;;6.53;;
17214;SDS011;8723;51.502;6.918;2023-08-31T03:52:02;6.82;;;6.13;;
17214;SDS011;8723;51.502;6.918;2023-08-31T03:54:29;6.22;;;5.63;;
17214;SDS011;8723;51.502;6.918;2023-08-31T03:56:57;7.68;;;6.18;;
17214;SDS011;8723;51.502;6.918;2023-08-31T03:59:24;6.90;;;6.20;;
17214;SDS011;8723;51.502;6.918;2023-08-31T04:01:51;6.78;;;6.05;;
17214;SDS011;8723;51.502;6.918;2023-08-31T04:04:18;6.57;;;5.97;;
17214;SDS011;8723;51.502;6.918;2023-08-31T04:06:44;6.47;;;5.70;;
17214;SDS011;8723;51.502;6.918;2023-08-31T04:09:11;6.20;;;5.60;;
17214;SDS011;8723;51.502;6.918;2023-08-31T04:11:38;7.55;;;6.00;;
17214;SDS011;8723;51.502;6.918;2023-08-31T04:14:06;7.57;;;6.63;;
17214;SDS011;8723;51.502;6.918;2023-08-31T04:16:33;7.38;;;6.38;;
17214;SDS011;8723;51.502;6.918;2023-08-31T04:18:59;7.20;;;6.50;;
17214;SDS011;8723;51.502;6.918;2023-08-31T04:21:26;7.30;;;6.30;;
17214;SDS011;8723;51.502;6.918;2023-08-31T04:23:53;7.88;;;7.00;;
17214;SDS011;8723;51.502;6.918;2023-08-31T04:26:20;7.63;;;6.90;;
17214;SDS011;8723;51.502;6.918;2023-08-31T04:28:46;7.88;;;6.68;;
17214;SDS011;8723;51.502;6.918;2023-08-31T04:31:15;7.57;;;6.40;;
17214;SDS011;8723;51.502;6.918;2023-08-31T04:33:42;7.97;;;6.35;;
17214;SDS011;8723;51.502;6.918;2023-08-31T04:36:09;7.25;;;6.60;;
17214;SDS011;8723;51.502;6.918;2023-08-31T04:38:35;8.18;;;6.53;;
17214;SDS011;8723;51.502;6.918;2023-08-31T04:41:03;7.55;;;6.43;;
17214;SDS011;8723;51.502;6.918;2023-08-31T04:43:30;8.30;;;6.40;;
17214;SDS011;8723;51.502;6.918;2023-08-31T04:45:57;8.32;;;6.70;;
17214;SDS011;8723;51.502;6.918;2023-08-31T04:48:25;7.57;;;6.80;;
17214;SDS011;8723;51.502;6.918;2023-08-31T04:50:55;6.77;;;6.03;;
17214;SDS011;8723;51.502;6.918;2023-08-31T04:53:23;6.88;;;6.18;;
17214;SDS011;8723;51.502;6.918;2023-08-31T04:55:49;6.88;;;6.13;;
17214;SDS011;8723;51.502;6.918;2023-08-31T04:58:16;6.68;;;6.07;;
17214;SDS011;8723;51.502;6.918;2023-08-31T05:00:43;9.18;;;6.70;;
17214;SDS011;8723;51.502;6.918;2023-08-31T05:03:10;7.10;;;6.40;;
17214;SDS011;8723;51.502;6.918;2023-08-31T05:05:38;7.63;;;6.15;;
17214;SDS011;8723;51.502;6.918;2023-08-31T05:08:07;7.40;;;6.15;;
17214;SDS011;8723;51.502;6.918;2023-08-31T05:10:34;7.10;;;6.40;;
17214;SDS011;8723;51.502;6.918;2023-08-31T05:13:01;7.00;;;6.30;;
17214;SDS011;8723;51.502;6.918;2023-08-31T05:15:29;8.73;;;6.63;;
17214;SDS011;8723;51.502;6.918;2023-08-31T05:17:55;6.35;;;5.65;;
17214;SDS011;8723;51.502;6.918;2023-08-31T05:20:22;7.28;;;6.57;;
17214;SDS011;8723;51.502;6.918;2023-08-31T05:22:50;7.68;;;6.60;;
17214;SDS011;8723;51.502;6.918;2023-08-31T05:25:17;7.10;;;6.40;;
17214;SDS011;8723;51.502;6.918;2023-08-31T05:27:44;7.53;;;6.53;;
17214;SDS011;8723;51.502;6.918;2023-08-31T05:30:11;7.70;;;6.50;;
17214;SDS011;8723;51.502;6.918;2023-08-31T05:32:38;7.43;;;6.72;;
17214;SDS011;8723;51.502;6.918;2023-08-31T05:35:05;7.18;;;6.50;;
17214;SDS011;8723;51.502;6.918;2023-08-31T05:37:33;7.43;;;6.63;;
17214;SDS011;8723;51.502;6.918;2023-08-31T05:40:02;7.00;;;6.28;;
17214;SDS011;8723;51.502;6.918;2023-08-31T05:42:32;7.68;;;6.88;;
17214;SDS011;8723;51.502;6.918;2023-08-31T05:44:58;8.10;;;7.30;;
17214;SDS011;8723;51.502;6.918;2023-08-31T05:47:25;9.43;;;7.30;;
17214;SDS011;8723;51.502;6.918;2023-08-31T05:49:52;7.18;;;6.47;;
17214;SDS011;8723;51.502;6.918;2023-08-31T05:52:19;7.43;;;6.82;;
17214;SDS011;8723;51.502;6.918;2023-08-31T05:54:46;6.60;;;6.00;;
17214;SDS011;8723;51.502;6.918;2023-08-31T05:57:18;6.90;;;6.10;;
17214;SDS011;8723;51.502;6.918;2023-08-31T05:59:45;8.70;;;6.60;;
17214;SDS011;8723;51.502;6.918;2023-08-31T06:02:12;6.90;;;6.15;;
17214;SDS011;8723;51.502;6.918;2023-08-31T06:04:39;7.40;;;6.53;;
17214;SDS011;8723;51.502;6.918;2023-08-31T06:07:06;7.38;;;6.13;;
17214;SDS011;8723;51.502;6.918;2023-08-31T06:09:32;6.38;;;5.78;;
17214;SDS011;8723;51.502;6.918;2023-08-31T06:11:59;8.07;;;6.20;;
17214;SDS011;8723;51.502;6.918;2023-08-31T06:14:27;6.70;;;6.10;;
17214;SDS011;8723;51.502;6.918;2023-08-31T06:16:54;7.03;;;6.30;;
17214;SDS011;8723;51.502;6.918;2023-08-31T06:19:21;6.55;;;5.95;;
17214;SDS011;8723;51.502;6.918;2023-08-31T06:21:48;7.68;;;6.90;;
17214;SDS011;8723;51.502;6.918;2023-08-31T06:24:15;7.60;;;6.50;;
17214;SDS011;8723;51.502;6.918;2023-08-31T06:26:42;6.53;;;5.93;;
17214;SDS011;8723;51.502;6.918;2023-08-31T06:29:08;7.07;;;6.38;;
17214;SDS011;8723;51.502;6.918;2023-08-31T06:31:37;7.07;;;6.15;;
17214;SDS011;8723;51.502;6.918;2023-08-31T06:34:04;7.22;;;6.43;;
17214;SDS011;8723;51.502;6.918;2023-08-31T06:36:31;7.00;;;6.38;;
17214;SDS011;8723;51.502;6.918;2023-08-31T06:38:57;8.18;;;6.40;;
17214;SDS011;8723;51.502;6.918;2023-08-31T06:41:24;7.07;;;6.38;;
17214;SDS011;8723;51.502;6.918;2023-08-31T06:43:51;7.13;;;6.32;;
17214;SDS011;8723;51.502;6.918;2023-08-31T06:46:18;7.47;;;6.05;;
17214;SDS011;8723;51.502;6.918;2023-08-31T06:48:46;7.70;;;6.05;;
17214;SDS011;8723;51.502;6.918;2023-08-31T06:51:13;6.60;;;6.00;;
17214;SDS011;8723;51.502;6.918;2023-08-31T06:53:41;6.63;;;5.90;;
17214;SDS011;8723;51.502;6.918;2023-08-31T06:56:09;6.45;;;5.82;;
17214;SDS011;8723;51.502;6.918;2023-08-31T06:58:36;8.20;;;5.82;;
17214;SDS011;8723;51.502;6.918;2023-08-31T07:01:05;10.45;;;6.15;;
17214;SDS011;8723;51.502;6.918;2023-08-31T07:03:32;8.38;;;5.88;;
17214;SDS011;8723;51.502;6.918;2023-08-31T07:06:00;7.75;;;5.82;;
17214;SDS011;8723;51.502;6.918;2023-08-31T07:08:27;7.83;;;6.17;;
17214;SDS011;8723;51.502;6.918;2023-08-31T07:10:55;5.95;;;5.35;;
17214;SDS011;8723;51.502;6.918;2023-08-31T07:13:22;6.60;;;5.22;;
17214;SDS011;8723;51.502;6.918;2023-08-31T07:15:49;6.10;;;5.50;;
17214;SDS011;8723;51.502;6.918;2023-08-31T07:18:16;5.90;;;5.40;;
17214;SDS011;8723;51.502;6.918;2023-08-31T07:20:45;5.37;;;4.63;;
17214;SDS011;8723;51.502;6.918;2023-08-31T07:23:13;6.73;;;4.13;;
17214;SDS011;8723;51.502;6.918;2023-08-31T07:25:40;7.30;;;4.70;;
17214;SDS011;8723;51.502;6.918;2023-08-31T07:28:07;5.22;;;4.03;;
17214;SDS011;8723;51.502;6.918;2023-08-31T07:30:34;4.47;;;3.47;;
17214;SDS011;8723;51.502;6.918;2023-08-31T07:33:00;4.70;;;3.63;;
17214;SDS011;8723;51.502;6.918;2023-08-31T07:35:28;4.50;;;3.30;;
17214;SDS011;8723;51.502;6.918;2023-08-31T07:37:55;6.22;;;3.35;;
17214;SDS011;8723;51.502;6.918;2023-08-31T07:40:23;5.15;;;3.15;;
17214;SDS011;8723;51.502;6.918;2023-08-31T07:42:51;4.88;;;3.20;;
17214;SDS011;8723;51.502;6.918;2023-08-31T07:45:18;3.63;;;3.28;;
17214;SDS011;8723;51.502;6.918;2023-08-31T07:47:44;5.72;;;3.05;;
17214;SDS011;8723;51.502;6.918;2023-08-31T07:50:11;3.28;;;2.97;;
17214;SDS011;8723;51.502;6.918;2023-08-31T07:52:39;4.60;;;3.10;;
17214;SDS011;8723;51.502;6.918;2023-08-31T07:55:06;5.10;;;3.53;;
17214;SDS011;8723;51.502;6.918;2023-08-31T07:57:35;5.45;;;3.55;;
17214;SDS011;8723;51.502;6.918;2023-08-31T08:00:02;5.28;;;3.30;;
17214;SDS011;8723;51.502;6.918;2023-08-31T08:02:29;6.40;;;3.10;;
17214;SDS011;8723;51.502;6.918;2023-08-31T08:04:56;4.25;;;2.80;;
17214;SDS011;8723;51.502;6.918;2023-08-31T08:07:22;4.40;;;2.78;;
17214;SDS011;8723;51.502;6.918;2023-08-31T08:09:49;3.15;;;2.78;;
17214;SDS011;8723;51.502;6.918;2023-08-31T08:12:16;4.25;;;2.78;;
17214;SDS011;8723;51.502;6.918;2023-08-31T08:14:44;5.40;;;2.80;;
17214;SDS011;8723;51.502;6.918;2023-08-31T08:17:11;2.92;;;2.50;;
17214;SDS011;8723;51.502;6.918;2023-08-31T08:19:37;3.63;;;2.80;;
17214;SDS011;8723;51.502;6.918;2023-08-31T08:22:04;4.50;;;2.90;;
17214;SDS011;8723;51.502;6.918;2023-08-31T08:24:31;4.03;;;2.80;;
17214;SDS011;8723;51.502;6.918;2023-08-31T08:26:58;4.20;;;2.72;;
17214;SDS011;8723;51.502;6.918;2023-08-31T08:29:25;3.88;;;2.83;;
17214;SDS011;8723;51.502;6.918;2023-08-31T08:31:53;3.33;;;2.63;;
17214;SDS011;8723;51.502;6.918;2023-08-31T08:34:19;3.38;;;2.47;;
17214;SDS011;8723;51.502;6.918;2023-08-31T08:36:46;4.50;;;2.83;;
17214;SDS011;8723;51.502;6.918;2023-08-31T08:39:13;3.88;;;3.15;;
17214;SDS011;8723;51.502;6.918;2023-08-31T08:41:40;4.28;;;2.90;;
17214;SDS011;8723;51.502;6.918;2023-08-31T08:44:07;4.68;;;3.00;;
17214;SDS011;8723;51.502;6.918;2023-08-31T08:46:34;5.95;;;3.22;;
17214;SDS011;8723;51.502;6.918;2023-08-31T08:49:03;4.82;;;3.10;;
17214;SDS011;8723;51.502;6.918;2023-08-31T08:51:31;3.60;;;2.78;;
17214;SDS011;8723;51.502;6.918;2023-08-31T08:53:59;3.28;;;2.83;;
17214;SDS011;8723;51.502;6.918;2023-08-31T08:56:26;3.75;;;2.72;;
17214;SDS011;8723;51.502;6.918;2023-08-31T08:58:55;5.37;;;3.27;;
17214;SDS011;8723;51.502;6.918;2023-08-31T09:01:22;3.53;;;2.95;;
17214;SDS011;8723;51.502;6.918;2023-08-31T09:03:51;3.55;;;2.95;;
17214;SDS011;8723;51.502;6.918;2023-08-31T09:06:19;3.00;;;2.60;;
17214;SDS011;8723;51.502;6.918;2023-08-31T09:08:52;2.63;;;2.42;;
17214;SDS011;8723;51.502;6.918;2023-08-31T09:11:20;4.57;;;3.20;;
17214;SDS011;8723;51.502;6.918;2023-08-31T09:13:47;5.72;;;2.97;;
17214;SDS011;8723;51.502;6.918;2023-08-31T09:16:23;4.85;;;2.55;;
17214;SDS011;8723;51.502;6.918;2023-08-31T09:18:51;2.97;;;2.60;;
17214;SDS011;8723;51.502;6.918;2023-08-31T09:21:19;3.55;;;2.80;;
17214;SDS011;8723;51.502;6.918;2023-08-31T09:23:47;5.57;;;2.92;;
17214;SDS011;8723;51.502;6.918;2023-08-31T09:26:22;4.00;;;2.92;;
17214;SDS011;8723;51.502;6.918;2023-08-31T09:28:48;4.28;;;2.72;;
17214;SDS011;8723;51.502;6.918;2023-08-31T09:31:15;3.50;;;2.90;;
17214;SDS011;8723;51.502;6.918;2023-08-31T09:33:49;3.90;;;2.60;;
17214;SDS011;8723;51.502;6.918;2023-08-31T09:36:16;4.00;;;2.80;;
17214;SDS011;8723;51.502;6.918;2023-08-31T09:38:44;3.90;;;2.67;;
17214;SDS011;8723;51.502;6.918;2023-08-31T09:41:11;4.85;;;2.67;;
17214;SDS011;8723;51.502;6.918;2023-08-31T09:43:40;4.07;;;2.50;;
17214;SDS011;8723;51.502;6.918;2023-08-31T09:46:07;5.13;;;2.80;;
17214;SDS011;8723;51.502;6.918;2023-08-31T09:48:35;5.00;;;2.80;;
17214;SDS011;8723;51.502;6.918;2023-08-31T09:51:06;3.45;;;2.40;;
17214;SDS011;8723;51.502;6.918;2023-08-31T09:53:33;3.97;;;2.47;;
17214;SDS011;8723;51.502;6.918;2023-08-31T09:56:05;4.10;;;2.53;;
17214;SDS011;8723;51.502;6.918;2023-08-31T09:58:32;3.30;;;2.33;;
17214;SDS011;8723;51.502;6.918;2023-08-31T10:01:00;3.67;;;2.20;;
17214;SDS011;8723;51.502;6.918;2023-08-31T10:03:27;4.20;;;2.35;;
17214;SDS011;8723;51.502;6.918;2023-08-31T10:05:54;4.88;;;2.35;;
17214;SDS011;8723;51.502;6.918;2023-08-31T10:08:22;4.22;;;1.85;;
17214;SDS011;8723;51.502;6.918;2023-08-31T10:10:49;3.30;;;1.95;;
17214;SDS011;8723;51.502;6.918;2023-08-31T10:13:18;3.40;;;2.00;;
17214;SDS011;8723;51.502;6.918;2023-08-31T10:15:47;4.20;;;2.10;;
17214;SDS011;8723;51.502;6.918;2023-08-31T10:18:15;3.05;;;1.80;;
17214;SDS011;8723;51.502;6.918;2023-08-31T10:20:42;2.95;;;1.67;;
17214;SDS011;8723;51.502;6.918;2023-08-31T10:23:10;3.67;;;1.73;;
17214;SDS011;8723;51.502;6.918;2023-08-31T10:28:27;3.55;;;1.90;;
17214;SDS011;8723;51.502;6.918;2023-08-31T10:31:00;3.03;;;1.88;;
17214;SDS011;8723;51.502;6.918;2023-08-31T10:33:28;2.50;;;1.55;;
17214;SDS011;8723;51.502;6.918;2023-08-31T10:35:57;3.83;;;1.77;;
17214;SDS011;8723;51.502;6.918;2023-08-31T10:38:25;2.03;;;1.50;;
17214;SDS011;8723;51.502;6.918;2023-08-31T10:40:59;2.47;;;1.60;;
17214;SDS011;8723;51.502;6.918;2023-08-31T10:43:29;4.03;;;1.80;;
17214;SDS011;8723;51.502;6.918;2023-08-31T10:46:14;4.53;;;1.90;;
17214;SDS011;8723;51.502;6.918;2023-08-31T10:48:49;4.45;;;1.98;;
17214;SDS011;8723;51.502;6.918;2023-08-31T10:51:16;3.65;;;2.00;;
17214;SDS011;8723;51.502;6.918;2023-08-31T10:53:44;2.33;;;1.80;;
17214;SDS011;8723;51.502;6.918;2023-08-31T10:56:11;3.03;;;2.10;;
17214;SDS011;8723;51.502;6.918;2023-08-31T10:58:40;3.08;;;1.92;;
17214;SDS011;8723;51.502;6.918;2023-08-31T11:01:06;3.30;;;1.90;;
17214;SDS011;8723;51.502;6.918;2023-08-31T11:03:38;3.20;;;2.23;;
17214;SDS011;8723;51.502;6.918;2023-08-31T11:06:23;2.65;;;1.83;;
17214;SDS011;8723;51.502;6.918;2023-08-31T11:08:54;3.40;;;1.77;;
17214;SDS011;8723;51.502;6.918;2023-08-31T11:11:22;4.72;;;2.15;;
17214;SDS011;8723;51.502;6.918;2023-08-31T11:13:55;2.95;;;1.90;;
17214;SDS011;8723;51.502;6.918;2023-08-31T11:16:23;3.40;;;2.08;;
17214;SDS011;8723;51.502;6.918;2023-08-31T11:18:49;3.65;;;2.10;;
17214;SDS011;8723;51.502;6.918;2023-08-31T11:21:17;2.78;;;1.95;;
17214;SDS011;8723;51.502;6.918;2023-08-31T11:23:46;2.73;;;1.90;;
17214;SDS011;8723;51.502;6.918;2023-08-31T11:26:13;3.20;;;1.85;;
17214;SDS011;8723;51.502;6.918;2023-08-31T11:28:43;3.88;;;1.73;;
17214;SDS011;8723;51.502;6.918;2023-08-31T11:31:12;3.67;;;2.08;;
17214;SDS011;8723;51.502;6.918;2023-08-31T11:33:48;3.60;;;1.83;;
17214;SDS011;8723;51.502;6.918;2023-08-31T11:36:15;2.80;;;1.95;;
17214;SDS011;8723;51.502;6.918;2023-08-31T11:38:43;5.67;;;1.90;;
17214;SDS011;8723;51.502;6.918;2023-08-31T11:41:10;2.93;;;2.00;;
17214;SDS011;8723;51.502;6.918;2023-08-31T11:43:37;3.38;;;2.17;;
17214;SDS011;8723;51.502;6.918;2023-08-31T11:46:04;2.42;;;1.85;;
17214;SDS011;8723;51.502;6.918;2023-08-31T11:48:34;1.52;;;1.42;;
17214;SDS011;8723;51.502;6.918;2023-08-31T11:51:01;2.67;;;1.80;;
17214;SDS011;8723;51.502;6.918;2023-08-31T11:53:28;2.67;;;1.80;;
17214;SDS011;8723;51.502;6.918;2023-08-31T11:55:55;2.70;;;1.80;;
17214;SDS011;8723;51.502;6.918;2023-08-31T11:58:22;3.15;;;1.70;;
17214;SDS011;8723;51.502;6.918;2023-08-31T12:00:56;3.15;;;2.00;;
17214;SDS011;8723;51.502;6.918;2023-08-31T12:03:24;2.67;;;1.83;;
17214;SDS011;8723;51.502;6.918;2023-08-31T12:05:52;3.65;;;1.80;;
17214;SDS011;8723;51.502;6.918;2023-08-31T12:08:26;2.92;;;1.60;;
17214;SDS011;8723;51.502;6.918;2023-08-31T12:10:53;3.05;;;1.90;;
17214;SDS011;8723;51.502;6.918;2023-08-31T12:13:21;3.70;;;1.87;;
17214;SDS011;8723;51.502;6.918;2023-08-31T12:15:53;3.28;;;1.83;;
17214;SDS011;8723;51.502;6.918;2023-08-31T12:18:21;2.30;;;1.60;;
17214;SDS011;8723;51.502;6.918;2023-08-31T12:20:49;2.60;;;1.70;;
17214;SDS011;8723;51.502;6.918;2023-08-31T12:23:18;2.83;;;1.85;;
17214;SDS011;8723;51.502;6.918;2023-08-31T12:25:47;3.65;;;2.05;;
17214;SDS011;8723;51.502;6.918;2023-08-31T12:28:14;3.47;;;2.13;;
17214;SDS011;8723;51.502;6.918;2023-08-31T12:30:42;5.13;;;1.95;;
17214;SDS011;8723;51.502;6.918;2023-08-31T12:33:11;3.35;;;2.10;;
17214;SDS011;8723;51.502;6.918;2023-08-31T12:35:38;3.88;;;2.00;;
17214;SDS011;8723;51.502;6.918;2023-08-31T12:38:07;6.70;;;2.93;;
17214;SDS011;8723;51.502;6.918;2023-08-31T12:40:34;123.22;;;16.27;;
17214;SDS011;8723;51.502;6.918;2023-08-31T12:43:01;3.88;;;2.13;;
17214;SDS011;8723;51.502;6.918;2023-08-31T12:45:28;3.35;;;1.95;;
17214;SDS011;8723;51.502;6.918;2023-08-31T12:47:55;3.97;;;2.00;;
17214;SDS011;8723;51.502;6.918;2023-08-31T12:50:21;4.22;;;2.05;;
17214;SDS011;8723;51.502;6.918;2023-08-31T12:52:48;4.93;;;2.30;;
17214;SDS011;8723;51.502;6.918;2023-08-31T12:55:17;3.37;;;2.00;;
17214;SDS011;8723;51.502;6.918;2023-08-31T12:57:44;4.40;;;2.90;;
17214;SDS011;8723;51.502;6.918;2023-08-31T13:00:11;4.20;;;1.77;;
17214;SDS011;8723;51.502;6.918;2023-08-31T13:02:40;6.80;;;4.32;;
17214;SDS011;8723;51.502;6.918;2023-08-31T13:05:08;4.60;;;2.00;;
17214;SDS011;8723;51.502;6.918;2023-08-31T13:07:36;3.20;;;2.00;;
17214;SDS011;8723;51.502;6.918;2023-08-31T13:10:03;3.67;;;1.88;;
17214;SDS011;8723;51.502;6.918;2023-08-31T13:12:33;3.28;;;2.08;;
17214;SDS011;8723;51.502;6.918;2023-08-31T13:15:00;3.35;;;2.05;;
17214;SDS011;8723;51.502;6.918;2023-08-31T13:17:27;2.70;;;1.60;;
17214;SDS011;8723;51.502;6.918;2023-08-31T13:19:54;2.85;;;1.60;;
17214;SDS011;8723;51.502;6.918;2023-08-31T13:22:23;2.60;;;1.70;;
17214;SDS011;8723;51.502;6.918;2023-08-31T13:24:50;2.25;;;1.70;;
17214;SDS011;8723;51.502;6.918;2023-08-31T13:27:16;2.65;;;1.73;;
17214;SDS011;8723;51.502;6.918;2023-08-31T13:29:45;3.92;;;1.80;;
17214;SDS011;8723;51.502;6.918;2023-08-31T13:32:12;3.05;;;1.77;;
17214;SDS011;8723;51.502;6.918;2023-08-31T13:34:39;3.15;;;1.52;;
17214;SDS011;8723;51.502;6.918;2023-08-31T13:37:06;2.30;;;1.83;;
17214;SDS011;8723;51.502;6.918;2023-08-31T13:39:34;2.55;;;1.42;;
17214;SDS011;8723;51.502;6.918;2023-08-31T13:42:01;2.90;;;1.70;;
17214;SDS011;8723;51.502;6.918;2023-08-31T13:44:28;3.80;;;1.77;;
17214;SDS011;8723;51.502;6.918;2023-08-31T13:46:57;2.97;;;1.90;;
17214;SDS011;8723;51.502;6.918;2023-08-31T13:49:24;2.65;;;1.70;;
17214;SDS011;8723;51.502;6.918;2023-08-31T13:51:51;2.25;;;1.70;;
17214;SDS011;8723;51.502;6.918;2023-08-31T13:54:17;3.93;;;2.10;;
17214;SDS011;8723;51.502;6.918;2023-08-31T13:56:44;3.60;;;2.08;;
17214;SDS011;8723;51.502;6.918;2023-08-31T13:59:11;4.00;;;2.00;;
17214;SDS011;8723;51.502;6.918;2023-08-31T14:01:38;2.63;;;1.80;;
17214;SDS011;8723;51.502;6.918;2023-08-31T14:04:06;2.45;;;1.85;;
17214;SDS011;8723;51.502;6.918;2023-08-31T14:06:33;3.42;;;2.22;;
17214;SDS011;8723;51.502;6.918;2023-08-31T14:09:01;6.97;;;2.92;;
17214;SDS011;8723;51.502;6.918;2023-08-31T14:11:30;6.70;;;3.50;;
17214;SDS011;8723;51.502;6.918;2023-08-31T14:14:01;16.77;;;4.80;;
17214;SDS011;8723;51.502;6.918;2023-08-31T14:16:30;5.13;;;3.43;;
17214;SDS011;8723;51.502;6.918;2023-08-31T14:18:57;19.20;;;5.93;;
17214;SDS011;8723;51.502;6.918;2023-08-31T14:21:25;12.35;;;6.82;;
17214;SDS011;8723;51.502;6.918;2023-08-31T14:23:52;18.42;;;8.23;;
17214;SDS011;8723;51.502;6.918;2023-08-31T14:26:20;12.02;;;8.63;;
17214;SDS011;8723;51.502;6.918;2023-08-31T14:28:48;13.95;;;9.43;;
17214;SDS011;8723;51.502;6.918;2023-08-31T14:31:15;32.60;;;12.43;;
17214;SDS011;8723;51.502;6.918;2023-08-31T14:33:42;18.23;;;11.55;;
17214;SDS011;8723;51.502;6.918;2023-08-31T14:36:09;13.68;;;12.27;;
17214;SDS011;8723;51.502;6.918;2023-08-31T14:38:37;16.05;;;13.27;;
17214;SDS011;8723;51.502;6.918;2023-08-31T14:41:03;17.15;;;15.25;;
17214;SDS011;8723;51.502;6.918;2023-08-31T14:43:31;16.67;;;14.27;;
17214;SDS011;8723;51.502;6.918;2023-08-31T14:45:58;18.70;;;16.10;;
17214;SDS011;8723;51.502;6.918;2023-08-31T14:48:25;19.75;;;17.33;;
17214;SDS011;8723;51.502;6.918;2023-08-31T14:50:51;19.48;;;16.70;;
17214;SDS011;8723;51.502;6.918;2023-08-31T14:53:18;18.38;;;15.93;;
17214;SDS011;8723;51.502;6.918;2023-08-31T14:55:49;17.08;;;15.25;;
17214;SDS011;8723;51.502;6.918;2023-08-31T14:58:16;15.93;;;14.23;;
17214;SDS011;8723;51.502;6.918;2023-08-31T15:00:42;16.05;;;14.35;;
17214;SDS011;8723;51.502;6.918;2023-08-31T15:03:09;14.82;;;13.02;;
17214;SDS011;8723;51.502;6.918;2023-08-31T15:05:37;15.38;;;12.95;;
17214;SDS011;8723;51.502;6.918;2023-08-31T15:08:06;14.90;;;13.50;;